sensor_id;sensor_type;location;lat;lon;timestamp;temperature;humidity
28438;DHT22;15667;52.376;9.708;2023-10-09T00:02:09;13.00;99.90
28438;DHT22;15667;52.376;9.708;2023-10-09T00:04:40;13.00;99.90
28438;DHT22;15667;52.376;9.708;2023-10-09T00:07:13;13.10;99.90
28438;DHT22;15667;52.376;9.708;2023-10-09T00:09:42;13.00;99.90
28438;DHT22;15667;52.376;9.708;2023-10-09T00:12:18;13.00;99.90
28438;DHT22;15667;52.376;9.708;2023-10-09T00:14:51;12.90;99.90
28438;DHT22;15667;52.376;9.708;2023-10-09T00:17:46;13.00;99.90
28438;DHT22;15667;52.376;9.708;2023-10-09T00:20:42;12.30;99.90
28438;DHT22;15667;52.376;9.708;2023-10-09T00:30:55;13.00;99.90
28438;DHT22;15667;52.376;9.708;2023-10-09T00:33:27;13.00;99.90
28438;DHT22;15667;52.376;9.708;2023-10-09T00:36:11;12.60;99.90
28438;DHT22;15667;52.376;9.708;2023-10-09T00:42:21;13.10;99.90
28438;DHT22;15667;52.376;9.708;2023-10-09T00:45:31;13.10;99.90
28438;DHT22;15667;52.376;9.708;2023-10-09T00:51:49;13.40;99.90
28438;DHT22;15667;52.376;9.708;2023-10-09T00:54:22;13.00;99.90
28438;DHT22;15667;52.376;9.708;2023-10-09T01:10:03;13.10;99.90
28438;DHT22;15667;52.376;9.708;2023-10-09T01:13:13;13.00;99.90
28438;DHT22;15667;52.376;9.708;2023-10-09T01:46:00;12.10;99.90
28438;DHT22;15667;52.376;9.708;2023-10-09T01:48:58;12.40;99.90
28438;DHT22;15667;52.376;9.708;2023-10-09T01:52:05;13.10;99.90
28438;DHT22;15667;52.376;9.708;2023-10-09T01:54:42;13.10;99.90
28438;DHT22;15667;52.376;9.708;2023-10-09T01:57:22;13.10;99.90
28438;DHT22;15667;52.376;9.708;2023-10-09T02:00:32;14.30;99.90
28438;DHT22;15667;52.376;9.708;2023-10-09T02:06:59;13.00;99.90
28438;DHT22;15667;52.376;9.708;2023-10-09T02:09:56;13.00;99.90
28438;DHT22;15667;52.376;9.708;2023-10-09T02:13:31;13.10;99.90
28438;DHT22;15667;52.376;9.708;2023-10-09T02:37:13;12.90;99.90
28438;DHT22;15667;52.376;9.708;2023-10-09T02:49:54;11.40;99.90
28438;DHT22;15667;52.376;9.708;2023-10-09T02:52:26;13.00;99.90
28438;DHT22;15667;52.376;9.708;2023-10-09T02:54:57;11.50;99.90
28438;DHT22;15667;52.376;9.708;2023-10-09T02:57:32;12.60;99.90
28438;DHT22;15667;52.376;9.708;2023-10-09T03:00:10;12.40;99.90
28438;DHT22;15667;52.376;9.708;2023-10-09T03:02:45;12.70;99.90
28438;DHT22;15667;52.376;9.708;2023-10-09T03:05:15;12.80;99.90
28438;DHT22;15667;52.376;9.708;2023-10-09T03:07:50;12.80;99.90
28438;DHT22;15667;52.376;9.708;2023-10-09T03:10:19;12.80;99.90
28438;DHT22;15667;52.376;9.708;2023-10-09T03:12:45;12.80;99.90
28438;DHT22;15667;52.376;9.708;2023-10-09T03:15:18;12.70;99.90
28438;DHT22;15667;52.376;9.708;2023-10-09T03:17:46;14.10;99.90
28438;DHT22;15667;52.376;9.708;2023-10-09T03:20:25;12.70;99.90
28438;DHT22;15667;52.376;9.708;2023-10-09T03:23:34;12.80;99.90
28438;DHT22;15667;52.376;9.708;2023-10-09T03:37:17;12.80;99.90
28438;DHT22;15667;52.376;9.708;2023-10-09T03:44:14;11.60;99.90
28438;DHT22;15667;52.376;9.708;2023-10-09T03:47:16;12.90;99.90
28438;DHT22;15667;52.376;9.708;2023-10-09T03:54:12;12.90;99.90
28438;DHT22;15667;52.376;9.708;2023-10-09T04:04:22;12.90;99.90
28438;DHT22;15667;52.376;9.708;2023-10-09T04:07:21;12.90;99.90
28438;DHT22;15667;52.376;9.708;2023-10-09T04:10:14;13.00;99.90
28438;DHT22;15667;52.376;9.708;2023-10-09T04:13:31;11.50;99.90
28438;DHT22;15667;52.376;9.708;2023-10-09T04:16:16;14.30;99.90
28438;DHT22;15667;52.376;9.708;2023-10-09T04:29:20;12.90;99.90
28438;DHT22;15667;52.376;9.708;2023-10-09T04:32:34;12.30;99.90
28438;DHT22;15667;52.376;9.708;2023-10-09T04:35:27;12.90;99.90
28438;DHT22;15667;52.376;9.708;2023-10-09T04:41:58;12.60;99.90
28438;DHT22;15667;52.376;9.708;2023-10-09T04:44:55;12.70;99.90
28438;DHT22;15667;52.376;9.708;2023-10-09T04:47:34;11.90;99.90
28438;DHT22;15667;52.376;9.708;2023-10-09T04:50:18;13.10;99.90
28438;DHT22;15667;52.376;9.708;2023-10-09T04:52:52;13.20;99.90
28438;DHT22;15667;52.376;9.708;2023-10-09T04:59:11;13.40;99.90
28438;DHT22;15667;52.376;9.708;2023-10-09T05:01:43;13.80;99.90
28438;DHT22;15667;52.376;9.708;2023-10-09T05:04:57;12.30;99.90
28438;DHT22;15667;52.376;9.708;2023-10-09T05:07:53;12.60;99.90
28438;DHT22;15667;52.376;9.708;2023-10-09T05:10:47;13.30;99.90
28438;DHT22;15667;52.376;9.708;2023-10-09T05:39:30;13.50;99.90
28438;DHT22;15667;52.376;9.708;2023-10-09T05:42:17;13.50;99.90
28438;DHT22;15667;52.376;9.708;2023-10-09T05:48:36;12.40;99.90
28438;DHT22;15667;52.376;9.708;2023-10-09T05:51:17;12.40;99.90
28438;DHT22;15667;52.376;9.708;2023-10-09T06:07:48;12.30;99.90
28438;DHT22;15667;52.376;9.708;2023-10-09T06:10:32;12.10;99.90
28438;DHT22;15667;52.376;9.708;2023-10-09T06:13:07;13.40;99.90
28438;DHT22;15667;52.376;9.708;2023-10-09T06:15:52;13.60;99.90
28438;DHT22;15667;52.376;9.708;2023-10-09T06:18:34;13.30;99.90
28438;DHT22;15667;52.376;9.708;2023-10-09T06:21:00;13.40;99.90
28438;DHT22;15667;52.376;9.708;2023-10-09T06:23:34;13.30;99.90
28438;DHT22;15667;52.376;9.708;2023-10-09T06:26:18;13.40;99.90
28438;DHT22;15667;52.376;9.708;2023-10-09T06:28:50;13.30;99.90
28438;DHT22;15667;52.376;9.708;2023-10-09T06:31:36;13.40;99.90
28438;DHT22;15667;52.376;9.708;2023-10-09T06:34:26;12.30;99.90
28438;DHT22;15667;52.376;9.708;2023-10-09T06:36:59;13.40;99.90
28438;DHT22;15667;52.376;9.708;2023-10-09T06:39:31;13.50;99.90
28438;DHT22;15667;52.376;9.708;2023-10-09T06:42:15;12.30;99.90
28438;DHT22;15667;52.376;9.708;2023-10-09T06:45:09;14.20;99.90
28438;DHT22;15667;52.376;9.708;2023-10-09T06:47:38;13.50;99.90
28438;DHT22;15667;52.376;9.708;2023-10-09T06:50:23;14.80;99.90
28438;DHT22;15667;52.376;9.708;2023-10-09T06:53:17;13.40;99.90
28438;DHT22;15667;52.376;9.708;2023-10-09T06:55:48;13.50;99.90
28438;DHT22;15667;52.376;9.708;2023-10-09T06:58:21;13.40;99.90
28438;DHT22;15667;52.376;9.708;2023-10-09T07:01:51;13.40;99.90
28438;DHT22;15667;52.376;9.708;2023-10-09T07:05:18;13.40;99.90
28438;DHT22;15667;52.376;9.708;2023-10-09T07:08:07;14.00;99.90
28438;DHT22;15667;52.376;9.708;2023-10-09T07:11:01;13.50;99.90
28438;DHT22;15667;52.376;9.708;2023-10-09T07:19:23;13.60;99.90
28438;DHT22;15667;52.376;9.708;2023-10-09T07:22:21;12.90;99.90
28438;DHT22;15667;52.376;9.708;2023-10-09T07:24:48;13.00;99.90
28438;DHT22;15667;52.376;9.708;2023-10-09T07:27:33;13.60;99.90
28438;DHT22;15667;52.376;9.708;2023-10-09T07:30:12;13.70;99.90
28438;DHT22;15667;52.376;9.708;2023-10-09T07:33:48;13.60;99.90
28438;DHT22;15667;52.376;9.708;2023-10-09T07:36:55;13.60;99.90
28438;DHT22;15667;52.376;9.708;2023-10-09T07:39:22;12.50;99.90
28438;DHT22;15667;52.376;9.708;2023-10-09T07:41:49;12.90;99.90
28438;DHT22;15667;52.376;9.708;2023-10-09T07:44:44;12.50;99.90
28438;DHT22;15667;52.376;9.708;2023-10-09T07:47:18;13.80;99.90
28438;DHT22;15667;52.376;9.708;2023-10-09T07:50:09;13.70;99.90
28438;DHT22;15667;52.376;9.708;2023-10-09T07:52:46;13.10;99.90
28438;DHT22;15667;52.376;9.708;2023-10-09T07:55:16;12.70;99.90
28438;DHT22;15667;52.376;9.708;2023-10-09T07:57:53;13.90;99.90
28438;DHT22;15667;52.376;9.708;2023-10-09T08:00:30;13.90;99.90
28438;DHT22;15667;52.376;9.708;2023-10-09T08:03:02;14.00;99.90
28438;DHT22;15667;52.376;9.708;2023-10-09T08:05:31;14.00;99.90
28438;DHT22;15667;52.376;9.708;2023-10-09T08:08:02;14.00;99.90
28438;DHT22;15667;52.376;9.708;2023-10-09T08:10:53;13.90;99.90
28438;DHT22;15667;52.376;9.708;2023-10-09T08:13:37;13.90;99.90
28438;DHT22;15667;52.376;9.708;2023-10-09T08:16:25;12.60;99.90
28438;DHT22;15667;52.376;9.708;2023-10-09T08:19:02;14.10;99.90
28438;DHT22;15667;52.376;9.708;2023-10-09T08:22:16;14.10;99.90
28438;DHT22;15667;52.376;9.708;2023-10-09T08:25:00;12.70;99.90
28438;DHT22;15667;52.376;9.708;2023-10-09T08:27:31;13.50;99.90
28438;DHT22;15667;52.376;9.708;2023-10-09T08:30:11;12.90;99.90
28438;DHT22;15667;52.376;9.708;2023-10-09T08:33:21;13.00;99.90
28438;DHT22;15667;52.376;9.708;2023-10-09T08:39:23;14.30;99.90
28438;DHT22;15667;52.376;9.708;2023-10-09T08:42:43;14.10;99.90
28438;DHT22;15667;52.376;9.708;2023-10-09T08:45:23;12.90;99.90
28438;DHT22;15667;52.376;9.708;2023-10-09T08:48:27;14.30;99.90
28438;DHT22;15667;52.376;9.708;2023-10-09T09:27:49;13.40;99.90
28438;DHT22;15667;52.376;9.708;2023-10-09T09:30:28;14.50;99.90
28438;DHT22;15667;52.376;9.708;2023-10-09T09:33:23;15.10;99.90
28438;DHT22;15667;52.376;9.708;2023-10-09T09:36:27;15.30;99.90
28438;DHT22;15667;52.376;9.708;2023-10-09T09:39:14;14.70;99.90
28438;DHT22;15667;52.376;9.708;2023-10-09T09:45:17;15.50;99.90
28438;DHT22;15667;52.376;9.708;2023-10-09T09:51:23;14.70;99.90
28438;DHT22;15667;52.376;9.708;2023-10-09T09:53:49;15.20;99.90
28438;DHT22;15667;52.376;9.708;2023-10-09T09:56:18;14.60;99.90
28438;DHT22;15667;52.376;9.708;2023-10-09T09:58:52;14.60;99.90
28438;DHT22;15667;52.376;9.708;2023-10-09T10:01:20;13.50;99.90
28438;DHT22;15667;52.376;9.708;2023-10-09T10:03:57;14.70;99.90
28438;DHT22;15667;52.376;9.708;2023-10-09T10:06:25;15.20;99.90
28438;DHT22;15667;52.376;9.708;2023-10-09T10:08:52;14.60;99.90
28438;DHT22;15667;52.376;9.708;2023-10-09T10:11:42;14.60;99.90
28438;DHT22;15667;52.376;9.708;2023-10-09T10:17:14;14.60;99.90
28438;DHT22;15667;52.376;9.708;2023-10-09T10:20:02;14.60;99.90
28438;DHT22;15667;52.376;9.708;2023-10-09T10:25:43;14.60;99.90
28438;DHT22;15667;52.376;9.708;2023-10-09T10:28:25;13.40;99.90
28438;DHT22;15667;52.376;9.708;2023-10-09T10:31:10;14.50;99.90
28438;DHT22;15667;52.376;9.708;2023-10-09T10:36:23;14.70;99.90
28438;DHT22;15667;52.376;9.708;2023-10-09T10:39:06;14.60;99.90
28438;DHT22;15667;52.376;9.708;2023-10-09T10:41:58;13.50;99.90
28438;DHT22;15667;52.376;9.708;2023-10-09T10:44:39;14.60;99.90
28438;DHT22;15667;52.376;9.708;2023-10-09T10:47:28;15.50;99.90
28438;DHT22;15667;52.376;9.708;2023-10-09T10:50:02;14.60;99.90
28438;DHT22;15667;52.376;9.708;2023-10-09T10:52:49;13.80;99.90
28438;DHT22;15667;52.376;9.708;2023-10-09T10:55:23;14.50;99.90
28438;DHT22;15667;52.376;9.708;2023-10-09T11:01:04;14.90;99.90
28438;DHT22;15667;52.376;9.708;2023-10-09T11:03:39;14.60;99.90
28438;DHT22;15667;52.376;9.708;2023-10-09T11:06:25;14.60;99.90
28438;DHT22;15667;52.376;9.708;2023-10-09T11:09:05;14.60;99.90
28438;DHT22;15667;52.376;9.708;2023-10-09T11:11:54;14.60;99.90
28438;DHT22;15667;52.376;9.708;2023-10-09T11:14:46;15.00;99.90
28438;DHT22;15667;52.376;9.708;2023-10-09T11:17:35;14.70;99.90
28438;DHT22;15667;52.376;9.708;2023-10-09T11:20:05;14.70;99.90
28438;DHT22;15667;52.376;9.708;2023-10-09T11:22:52;14.80;99.90
28438;DHT22;15667;52.376;9.708;2023-10-09T11:25:42;14.80;99.90
28438;DHT22;15667;52.376;9.708;2023-10-09T11:28:22;14.80;99.90
28438;DHT22;15667;52.376;9.708;2023-10-09T11:31:09;14.90;99.90
28438;DHT22;15667;52.376;9.708;2023-10-09T11:36:15;14.90;99.90
28438;DHT22;15667;52.376;9.708;2023-10-09T11:39:06;13.80;99.90
28438;DHT22;15667;52.376;9.708;2023-10-09T11:45:24;14.80;99.90
28438;DHT22;15667;52.376;9.708;2023-10-09T11:48:17;14.90;99.90
28438;DHT22;15667;52.376;9.708;2023-10-09T11:51:33;14.00;99.90
28438;DHT22;15667;52.376;9.708;2023-10-09T11:53:59;14.80;99.90
28438;DHT22;15667;52.376;9.708;2023-10-09T11:56:25;14.80;99.90
28438;DHT22;15667;52.376;9.708;2023-10-09T12:02:11;14.80;99.90
28438;DHT22;15667;52.376;9.708;2023-10-09T12:05:06;14.80;99.90
28438;DHT22;15667;52.376;9.708;2023-10-09T13:32:24;15.50;99.90
28438;DHT22;15667;52.376;9.708;2023-10-09T13:35:24;15.50;99.90
28438;DHT22;15667;52.376;9.708;2023-10-09T13:38:35;14.80;99.90
28438;DHT22;15667;52.376;9.708;2023-10-09T13:44:45;15.50;99.90
28438;DHT22;15667;52.376;9.708;2023-10-09T13:52:25;15.50;99.90
28438;DHT22;15667;52.376;9.708;2023-10-09T14:10:39;15.60;99.90
28438;DHT22;15667;52.376;9.708;2023-10-09T14:13:05;15.50;99.90
28438;DHT22;15667;52.376;9.708;2023-10-09T14:15:38;15.70;99.90
28438;DHT22;15667;52.376;9.708;2023-10-09T14:18:08;15.70;99.90
28438;DHT22;15667;52.376;9.708;2023-10-09T14:20:37;14.80;99.90
28438;DHT22;15667;52.376;9.708;2023-10-09T14:23:10;15.60;99.90
28438;DHT22;15667;52.376;9.708;2023-10-09T14:25:54;15.80;99.90
28438;DHT22;15667;52.376;9.708;2023-10-09T14:28:35;15.60;99.90
28438;DHT22;15667;52.376;9.708;2023-10-09T15:10:49;15.90;99.90
28438;DHT22;15667;52.376;9.708;2023-10-09T15:13:45;15.90;99.90
28438;DHT22;15667;52.376;9.708;2023-10-09T18:45:13;13.30;99.90
28438;DHT22;15667;52.376;9.708;2023-10-09T18:48:03;14.80;99.90
28438;DHT22;15667;52.376;9.708;2023-10-09T18:51:06;15.80;99.90
28438;DHT22;15667;52.376;9.708;2023-10-09T18:53:48;14.60;99.90
28438;DHT22;15667;52.376;9.708;2023-10-09T18:56:23;14.80;99.90
28438;DHT22;15667;52.376;9.708;2023-10-09T18:58:56;13.60;99.90
28438;DHT22;15667;52.376;9.708;2023-10-09T19:01:46;15.90;99.90
28438;DHT22;15667;52.376;9.708;2023-10-09T19:08:22;14.70;99.90
28438;DHT22;15667;52.376;9.708;2023-10-09T19:16:55;15.70;99.90
28438;DHT22;15667;52.376;9.708;2023-10-09T19:19:46;16.60;99.90
28438;DHT22;15667;52.376;9.708;2023-10-09T19:22:19;15.00;99.90
28438;DHT22;15667;52.376;9.708;2023-10-09T19:24:46;14.80;99.90
28438;DHT22;15667;52.376;9.708;2023-10-09T19:27:14;14.80;99.90
28438;DHT22;15667;52.376;9.708;2023-10-09T19:29:57;13.30;99.90
28438;DHT22;15667;52.376;9.708;2023-10-09T19:32:28;14.80;99.90
28438;DHT22;15667;52.376;9.708;2023-10-09T19:38:14;14.90;99.90
28438;DHT22;15667;52.376;9.708;2023-10-09T19:40:41;15.80;99.90
28438;DHT22;15667;52.376;9.708;2023-10-09T19:43:07;15.00;99.90
28438;DHT22;15667;52.376;9.708;2023-10-09T19:45:34;15.60;99.90
28438;DHT22;15667;52.376;9.708;2023-10-09T19:51:31;14.50;99.90
28438;DHT22;15667;52.376;9.708;2023-10-09T19:54:41;15.70;99.90
28438;DHT22;15667;52.376;9.708;2023-10-09T19:57:45;14.90;99.90
28438;DHT22;15667;52.376;9.708;2023-10-09T20:14:42;14.50;99.90
28438;DHT22;15667;52.376;9.708;2023-10-09T20:23:28;15.10;99.90
28438;DHT22;15667;52.376;9.708;2023-10-09T20:26:01;14.90;99.90
28438;DHT22;15667;52.376;9.708;2023-10-09T20:28:27;13.50;99.90
28438;DHT22;15667;52.376;9.708;2023-10-09T20:30:53;15.00;99.90
28438;DHT22;15667;52.376;9.708;2023-10-09T20:33:21;14.90;99.90
28438;DHT22;15667;52.376;9.708;2023-10-09T20:35:47;16.10;99.90
28438;DHT22;15667;52.376;9.708;2023-10-09T20:38:16;15.30;99.90
28438;DHT22;15667;52.376;9.708;2023-10-09T20:40:42;14.80;99.90
28438;DHT22;15667;52.376;9.708;2023-10-09T20:43:09;15.40;99.90
28438;DHT22;15667;52.376;9.708;2023-10-09T20:45:38;14.80;99.90
28438;DHT22;15667;52.376;9.708;2023-10-09T20:48:04;15.40;99.90
28438;DHT22;15667;52.376;9.708;2023-10-09T20:50:30;15.50;99.90
28438;DHT22;15667;52.376;9.708;2023-10-09T20:52:56;15.50;99.90
28438;DHT22;15667;52.376;9.708;2023-10-09T20:55:25;15.60;99.90
28438;DHT22;15667;52.376;9.708;2023-10-09T20:57:55;14.70;99.90
28438;DHT22;15667;52.376;9.708;2023-10-09T21:00:25;14.80;99.90
28438;DHT22;15667;52.376;9.708;2023-10-09T21:02:54;14.80;99.90
28438;DHT22;15667;52.376;9.708;2023-10-09T21:05:21;14.70;99.90
28438;DHT22;15667;52.376;9.708;2023-10-09T21:11:13;13.90;99.90
28438;DHT22;15667;52.376;9.708;2023-10-09T21:13:39;14.60;99.90
28438;DHT22;15667;52.376;9.708;2023-10-09T21:16:09;14.00;99.90
28438;DHT22;15667;52.376;9.708;2023-10-09T21:18:51;14.70;99.90
28438;DHT22;15667;52.376;9.708;2023-10-09T21:21:23;14.50;99.90
28438;DHT22;15667;52.376;9.708;2023-10-09T21:23:49;14.80;99.90
28438;DHT22;15667;52.376;9.708;2023-10-09T21:26:26;13.20;99.90
28438;DHT22;15667;52.376;9.708;2023-10-09T21:29:03;14.60;99.90
28438;DHT22;15667;52.376;9.708;2023-10-09T21:31:29;13.30;99.90
28438;DHT22;15667;52.376;9.708;2023-10-09T21:33:55;13.60;99.90
28438;DHT22;15667;52.376;9.708;2023-10-09T21:36:22;14.40;99.90
28438;DHT22;15667;52.376;9.708;2023-10-09T21:38:48;14.40;99.90
28438;DHT22;15667;52.376;9.708;2023-10-09T21:41:17;14.50;99.90
28438;DHT22;15667;52.376;9.708;2023-10-09T21:44:07;14.40;99.90
28438;DHT22;15667;52.376;9.708;2023-10-09T21:46:39;14.30;99.90
28438;DHT22;15667;52.376;9.708;2023-10-09T21:49:10;14.30;99.90
28438;DHT22;15667;52.376;9.708;2023-10-09T21:51:51;14.40;99.90
28438;DHT22;15667;52.376;9.708;2023-10-09T21:54:35;14.40;99.90
28438;DHT22;15667;52.376;9.708;2023-10-09T21:57:07;13.10;99.90
28438;DHT22;15667;52.376;9.708;2023-10-09T21:59:40;15.60;99.90
28438;DHT22;15667;52.376;9.708;2023-10-09T22:02:19;14.30;99.90
28438;DHT22;15667;52.376;9.708;2023-10-09T22:04:58;13.20;99.90
28438;DHT22;15667;52.376;9.708;2023-10-09T22:07:42;14.30;99.90
28438;DHT22;15667;52.376;9.708;2023-10-09T22:10:20;15.60;99.90
28438;DHT22;15667;52.376;9.708;2023-10-09T22:12:57;15.00;99.90
28438;DHT22;15667;52.376;9.708;2023-10-09T22:15:27;13.40;99.90
28438;DHT22;15667;52.376;9.708;2023-10-09T22:21:12;14.70;99.90
28438;DHT22;15667;52.376;9.708;2023-10-09T22:23:39;14.30;99.90
28438;DHT22;15667;52.376;9.708;2023-10-09T22:34:00;14.30;99.90
28438;DHT22;15667;52.376;9.708;2023-10-09T22:36:36;14.60;99.90
28438;DHT22;15667;52.376;9.708;2023-10-09T22:39:29;14.20;99.90
28438;DHT22;15667;52.376;9.708;2023-10-09T22:42:09;14.20;99.90
28438;DHT22;15667;52.376;9.708;2023-10-09T22:44:40;14.20;99.90
28438;DHT22;15667;52.376;9.708;2023-10-09T22:47:09;14.20;99.90
28438;DHT22;15667;52.376;9.708;2023-10-09T22:49:36;14.30;99.90
28438;DHT22;15667;52.376;9.708;2023-10-09T22:52:04;14.20;99.90
28438;DHT22;15667;52.376;9.708;2023-10-09T22:54:40;14.20;99.90
28438;DHT22;15667;52.376;9.708;2023-10-09T22:57:14;14.10;99.90
28438;DHT22;15667;52.376;9.708;2023-10-09T22:59:42;13.70;99.90
28438;DHT22;15667;52.376;9.708;2023-10-09T23:02:12;14.20;99.90
28438;DHT22;15667;52.376;9.708;2023-10-09T23:04:50;14.90;99.90
28438;DHT22;15667;52.376;9.708;2023-10-09T23:07:29;14.30;99.90
28438;DHT22;15667;52.376;9.708;2023-10-09T23:09:54;15.60;99.90
28438;DHT22;15667;52.376;9.708;2023-10-09T23:12:40;14.20;99.90
28438;DHT22;15667;52.376;9.708;2023-10-09T23:15:12;14.20;99.90
28438;DHT22;15667;52.376;9.708;2023-10-09T23:17:59;14.20;99.90
28438;DHT22;15667;52.376;9.708;2023-10-09T23:20:43;14.20;99.90
28438;DHT22;15667;52.376;9.708;2023-10-09T23:23:34;14.10;99.90
28438;DHT22;15667;52.376;9.708;2023-10-09T23:26:05;14.10;99.90
28438;DHT22;15667;52.376;9.708;2023-10-09T23:28:31;14.10;99.90
28438;DHT22;15667;52.376;9.708;2023-10-09T23:31:06;14.20;99.90
28438;DHT22;15667;52.376;9.708;2023-10-09T23:33:52;14.20;99.90
28438;DHT22;15667;52.376;9.708;2023-10-09T23:36:21;14.10;99.90
28438;DHT22;15667;52.376;9.708;2023-10-09T23:39:00;14.20;99.90
28438;DHT22;15667;52.376;9.708;2023-10-09T23:41:39;14.20;99.90
28438;DHT22;15667;52.376;9.708;2023-10-09T23:44:05;14.20;99.90
28438;DHT22;15667;52.376;9.708;2023-10-09T23:46:37;14.20;99.90
28438;DHT22;15667;52.376;9.708;2023-10-09T23:49:06;14.20;99.90
28438;DHT22;15667;52.376;9.708;2023-10-09T23:51:36;14.60;99.90
28438;DHT22;15667;52.376;9.708;2023-10-09T23:54:08;14.30;99.90
28438;DHT22;15667;52.376;9.708;2023-10-09T23:56:37;14.30;99.90
28438;DHT22;15667;52.376;9.708;2023-10-09T23:59:25;14.30;99.90
